createdAt,value
2018-10-05T00:05:53.352Z,100283.64
2018-10-05T00:11:58.449Z,100285.08
2018-10-05T00:18:03.118Z,100280.39
2018-10-05T00:24:07.842Z,100286.92
2018-10-05T00:30:12.512Z,100278.38
2018-10-05T00:36:17.328Z,100268.20
2018-10-05T00:42:22.155Z,100259.55
2018-10-05T00:48:26.880Z,100249.32
2018-10-05T00:54:31.508Z,100245.20
2018-10-05T01:00:36.184Z,100241.31
2018-10-05T01:06:40.957Z,100239.21
2018-10-05T01:12:45.628Z,100241.08
2018-10-05T01:18:50.334Z,100237.67
2018-10-05T01:24:55.009Z,100230.08
2018-10-05T01:30:59.989Z,100230.37
2018-10-05T01:37:04.567Z,100219.66
2018-10-05T01:43:09.152Z,100216.20
2018-10-05T01:49:13.802Z,100222.31
2018-10-05T01:55:18.440Z,100205.70
2018-10-05T02:01:23.951Z,100195.99
2018-10-05T02:07:28.578Z,100187.39
2018-10-05T02:13:33.194Z,100184.08
2018-10-05T02:19:37.787Z,100178.90
2018-10-05T02:25:42.460Z,100168.38
2018-10-05T02:31:47.058Z,100162.02
2018-10-05T02:37:51.977Z,100152.56
2018-10-05T02:43:56.941Z,100149.42
2018-10-05T02:50:01.897Z,100142.91
2018-10-05T02:56:06.888Z,100151.05
2018-10-05T03:02:34.049Z,100152.83
2018-10-05T03:08:38.715Z,100147.69
2018-10-05T03:14:44.506Z,100133.30
2018-10-05T03:20:49.170Z,100130.13
2018-10-05T03:26:53.789Z,100124.81
2018-10-05T03:32:58.420Z,100123.77
2018-10-05T03:39:03.177Z,100116.45
2018-10-05T03:45:07.898Z,100122.88
2018-10-05T03:51:12.970Z,100109.45
2018-10-05T03:57:17.607Z,100114.05
2018-10-05T04:03:22.243Z,100113.12
2018-10-05T04:09:26.934Z,100112.63
2018-10-05T04:15:31.644Z,100114.69
2018-10-05T04:21:36.313Z,100116.55
2018-10-05T04:27:41.248Z,100112.54
2018-10-05T04:33:45.843Z,100110.75
2018-10-05T04:39:50.848Z,100113.53
2018-10-05T04:45:56.367Z,100111.95
2018-10-05T04:52:01.098Z,100110.38
2018-10-05T04:58:05.758Z,100115.89
2018-10-05T05:04:10.393Z,100112.61
2018-10-05T05:10:15.005Z,100115.71
2018-10-05T05:16:19.644Z,100117.02
2018-10-05T05:22:24.307Z,100117.70
2018-10-05T05:28:28.919Z,100117.09
2018-10-05T05:34:33.521Z,100111.11
2018-10-05T05:40:38.192Z,100111.31
2018-10-05T05:46:42.805Z,100107.12
2018-10-05T05:52:47.812Z,100111.01
2018-10-05T05:58:52.450Z,100105.17
2018-10-05T06:04:57.116Z,100107.20
2018-10-05T06:11:01.789Z,100107.56
2018-10-05T06:17:06.477Z,100107.74
2018-10-05T06:23:11.397Z,100103.30
2018-10-05T06:29:16.378Z,100102.95
2018-10-05T06:35:21.410Z,100102.28
2018-10-05T06:41:26.054Z,100109.10
2018-10-05T06:47:30.751Z,100103.45
2018-10-05T06:53:35.367Z,100111.48
2018-10-05T06:59:40.026Z,100112.31
2018-10-05T07:05:44.701Z,100112.16
2018-10-05T07:11:49.369Z,100115.50
2018-10-05T07:17:54.058Z,100107.47
2018-10-05T07:23:58.759Z,100100.60
2018-10-05T07:30:03.457Z,100102.39
2018-10-05T07:36:08.386Z,100093.52
2018-10-05T07:42:13.093Z,100092.19
2018-10-05T07:48:17.834Z,100086.72
2018-10-05T07:54:22.833Z,100090.41
2018-10-05T08:00:28.048Z,100087.26
2018-10-05T08:06:33.262Z,100091.13
2018-10-05T08:12:38.071Z,100088.19
2018-10-05T08:18:42.770Z,100087.27
2018-10-05T08:24:47.766Z,100089.44
2018-10-05T08:30:52.455Z,100083.17
2018-10-05T08:36:57.131Z,100073.15
2018-10-05T08:43:01.760Z,100070.60
2018-10-05T08:49:06.870Z,100064.80
2018-10-05T08:55:11.496Z,100056.64
2018-10-05T09:01:16.147Z,100048.50
2018-10-05T09:07:21.182Z,100046.00
2018-10-05T09:13:25.836Z,100033.86
2018-10-05T09:19:30.442Z,100021.22
2018-10-05T09:25:35.106Z,100001.06
2018-10-05T09:31:39.737Z,99992.16
2018-10-05T09:37:44.406Z,99980.28
2018-10-05T09:43:49.022Z,99963.28
2018-10-05T09:49:53.611Z,99958.95
2018-10-05T09:55:58.561Z,99941.45
2018-10-05T10:02:08.355Z,99925.64
2018-10-05T10:08:13.124Z,99918.31
2018-10-05T10:14:18.158Z,99916.96
2018-10-05T10:20:22.762Z,99905.22
2018-10-05T10:26:27.357Z,99904.98
2018-10-05T10:32:31.989Z,99901.63
2018-10-05T10:38:36.674Z,99899.44
2018-10-05T10:44:41.418Z,99882.69
2018-10-05T10:50:46.103Z,99860.58
2018-10-05T10:56:50.737Z,99846.95
2018-10-05T11:02:55.289Z,99836.41
2018-10-05T11:08:59.932Z,99831.33
2018-10-05T11:15:04.622Z,99816.31
2018-10-05T11:21:09.310Z,99802.53
2018-10-05T11:27:14.382Z,99804.13
2018-10-05T11:33:19.034Z,99782.45
2018-10-05T11:39:23.652Z,99773.01
2018-10-05T11:45:28.311Z,99751.24
2018-10-05T11:51:33.015Z,99748.98
2018-10-05T11:57:38.006Z,99741.27
2018-10-05T12:03:42.593Z,99735.94
2018-10-05T12:09:47.706Z,99722.62
2018-10-05T12:15:52.310Z,99716.33
2018-10-05T12:21:56.966Z,99711.48
2018-10-05T12:28:01.566Z,99700.45
2018-10-05T12:34:06.748Z,99707.00
2018-10-05T12:40:11.379Z,99702.14
2018-10-05T12:46:16.026Z,99697.74
2018-10-05T12:52:20.677Z,99690.53
2018-10-05T12:58:25.315Z,99684.80
2018-10-05T13:04:29.962Z,99681.96
2018-10-05T13:10:34.594Z,99657.88
2018-10-05T13:16:39.265Z,99648.61
2018-10-05T13:22:43.907Z,99649.77
2018-10-05T13:28:48.558Z,99646.95
2018-10-05T13:34:53.159Z,99629.36
2018-10-05T13:40:57.794Z,99631.39
2018-10-05T13:47:02.357Z,99627.33
2018-10-05T13:53:07.282Z,99603.56
2018-10-05T13:59:12.093Z,99601.05
2018-10-05T14:05:16.696Z,99588.67
2018-10-05T14:11:21.820Z,99589.23
2018-10-05T14:17:26.931Z,99579.67
2018-10-05T14:23:31.843Z,99575.03
2018-10-05T14:29:36.755Z,99559.91
2018-10-05T14:35:41.361Z,99558.84
2018-10-05T14:41:46.017Z,99551.77
2018-10-05T14:47:50.620Z,99543.67
2018-10-05T14:53:55.267Z,99532.05
2018-10-05T14:59:59.990Z,99531.00
2018-10-05T15:06:04.750Z,99521.84
2018-10-05T15:12:09.590Z,99505.44
2018-10-05T15:18:14.288Z,99502.11
2018-10-05T15:24:18.940Z,99500.09
2018-10-05T15:30:23.560Z,99487.08
2018-10-05T15:36:28.184Z,99482.31
2018-10-05T15:42:32.794Z,99482.67
2018-10-05T15:48:37.756Z,99472.81
2018-10-05T15:54:42.400Z,99472.08
2018-10-05T16:00:47.043Z,99469.48
2018-10-05T16:06:51.645Z,99466.86
2018-10-05T16:12:56.318Z,99468.11
2018-10-05T16:19:00.925Z,99464.84
2018-10-05T16:25:05.615Z,99469.56
2018-10-05T16:31:10.650Z,99467.77
2018-10-05T16:37:15.365Z,99463.59
2018-10-05T16:43:20.051Z,99458.30
2018-10-05T16:49:24.952Z,99459.99
2018-10-05T16:55:29.532Z,99457.16
2018-10-05T17:01:34.854Z,99457.91
2018-10-05T17:07:39.569Z,99451.92
2018-10-05T17:13:44.225Z,99449.63
2018-10-05T17:19:48.835Z,99442.70
2018-10-05T17:25:53.518Z,99443.02
2018-10-05T17:31:58.144Z,99439.92
2018-10-05T17:38:02.812Z,99442.28
2018-10-05T17:44:07.758Z,99450.27
2018-10-05T17:50:12.392Z,99440.94
2018-10-05T17:56:17.085Z,99436.33
2018-10-05T18:02:21.795Z,99433.41
2018-10-05T18:08:26.500Z,99424.47
2018-10-05T18:14:31.128Z,99427.15
2018-10-05T18:20:35.804Z,99421.52
2018-10-05T18:26:41.041Z,99421.11
2018-10-05T18:32:45.705Z,99405.75
2018-10-05T18:38:50.330Z,99407.69
2018-10-05T18:44:55.054Z,99412.86
2018-10-05T18:51:00.080Z,99412.71
2018-10-05T18:57:17.577Z,99403.64
2018-10-05T19:03:22.243Z,99403.41
2018-10-05T19:09:26.855Z,99395.01
2018-10-05T19:15:31.492Z,99391.34
2018-10-05T19:21:36.246Z,99395.53
2018-10-05T19:27:40.920Z,99388.88
2018-10-05T19:33:45.865Z,99379.95
2018-10-05T19:39:51.168Z,99360.25
2018-10-05T19:45:55.836Z,99356.27
2018-10-05T19:52:00.536Z,99360.13
2018-10-05T19:58:05.494Z,99357.22
2018-10-05T20:04:10.205Z,99349.92
2018-10-05T20:10:15.239Z,99348.51
2018-10-05T20:16:19.924Z,99344.40
2018-10-05T20:22:24.525Z,99342.91
2018-10-05T20:28:29.543Z,99342.91
2018-10-05T20:34:34.500Z,99344.36
2018-10-05T20:40:39.146Z,99349.55
2018-10-05T20:46:43.815Z,99350.70
2018-10-05T20:52:48.429Z,99341.30
2018-10-05T20:58:53.055Z,99337.02
2018-10-05T21:04:57.650Z,99338.61
2018-10-05T21:11:02.649Z,99335.19
2018-10-05T21:17:07.505Z,99330.58
2018-10-05T21:23:12.112Z,99332.20
2018-10-05T21:29:16.754Z,99319.56
2018-10-05T21:35:21.407Z,99323.86
2018-10-05T21:41:26.036Z,99325.43
2018-10-05T21:47:31.077Z,99322.97
2018-10-05T21:53:36.025Z,99322.97
2018-10-05T21:59:40.709Z,99314.61
2018-10-05T22:05:46.378Z,99313.03
2018-10-05T22:11:51.363Z,99316.52
2018-10-05T22:17:56.334Z,99317.56
2018-10-05T22:24:01.090Z,99314.84
2018-10-05T22:30:06.468Z,99308.86
2018-10-05T22:36:11.874Z,99306.84
2018-10-05T22:42:16.765Z,99305.95
2018-10-05T22:48:21.405Z,99300.23
2018-10-05T22:54:26.047Z,99290.00
2018-10-05T23:00:30.760Z,99285.44
2018-10-05T23:06:36.031Z,99276.66
2018-10-05T23:12:41.073Z,99277.26
2018-10-05T23:18:45.736Z,99271.36
2018-10-05T23:24:50.332Z,99267.43
2018-10-05T23:30:55.030Z,99266.22
2018-10-05T23:36:59.748Z,99266.94
2018-10-05T23:43:04.337Z,99259.06
2018-10-05T23:49:08.977Z,99254.43
2018-10-05T23:55:13.589Z,99250.38
